sensor_id;sensor_type;location;lat;lon;timestamp;pressure;altitude;pressure_sealevel;temperature;humidity
75298;BME280;63896;45.990;18.688;2023-04-06T00:02:36;100932.19;;;1.23;56.41
75298;BME280;63896;45.990;18.688;2023-04-06T00:05:39;100931.09;;;1.26;56.70
75298;BME280;63896;45.990;18.688;2023-04-06T00:08:42;100931.38;;;1.23;55.72
75298;BME280;63896;45.990;18.688;2023-04-06T00:11:45;100932.19;;;1.23;56.12
75298;BME280;63896;45.990;18.688;2023-04-06T00:14:48;100922.84;;;1.21;56.37
75298;BME280;63896;45.990;18.688;2023-04-06T00:17:51;100928.22;;;1.19;56.06
75298;BME280;63896;45.990;18.688;2023-04-06T00:20:54;100929.00;;;1.20;56.15
75298;BME280;63896;45.990;18.688;2023-04-06T00:23:58;100924.50;;;1.22;56.10
75298;BME280;63896;45.990;18.688;2023-04-06T00:27:00;100922.59;;;1.14;56.85
75298;BME280;63896;45.990;18.688;2023-04-06T00:30:05;100921.59;;;1.25;55.94
75298;BME280;63896;45.990;18.688;2023-04-06T00:33:08;100917.06;;;1.17;56.17
75298;BME280;63896;45.990;18.688;2023-04-06T00:36:11;100919.97;;;1.14;56.07
75298;BME280;63896;45.990;18.688;2023-04-06T00:39:14;100919.25;;;1.12;56.13
75298;BME280;63896;45.990;18.688;2023-04-06T00:42:21;100919.00;;;1.15;56.21
75298;BME280;63896;45.990;18.688;2023-04-06T00:45:28;100916.09;;;1.18;56.18
75298;BME280;63896;45.990;18.688;2023-04-06T00:48:31;100911.72;;;1.09;56.21
75298;BME280;63896;45.990;18.688;2023-04-06T00:51:35;100907.88;;;1.04;56.36
75298;BME280;63896;45.990;18.688;2023-04-06T00:54:38;100900.59;;;0.98;56.69
75298;BME280;63896;45.990;18.688;2023-04-06T00:57:42;100898.94;;;1.06;56.46
75298;BME280;63896;45.990;18.688;2023-04-06T01:00:45;100905.28;;;1.04;56.26
75298;BME280;63896;45.990;18.688;2023-04-06T01:03:57;100898.09;;;1.06;56.01
75298;BME280;63896;45.990;18.688;2023-04-06T01:07:01;100902.91;;;1.01;56.54
75298;BME280;63896;45.990;18.688;2023-04-06T01:10:26;100896.19;;;0.98;56.55
75298;BME280;63896;45.990;18.688;2023-04-06T01:13:50;100893.31;;;1.01;56.12
75298;BME280;63896;45.990;18.688;2023-04-06T01:17:12;100891.94;;;1.07;55.73
75298;BME280;63896;45.990;18.688;2023-04-06T01:20:15;100892.88;;;1.06;56.06
75298;BME280;63896;45.990;18.688;2023-04-06T01:23:19;100888.19;;;1.09;56.17
75298;BME280;63896;45.990;18.688;2023-04-06T01:26:23;100887.66;;;1.06;55.68
75298;BME280;63896;45.990;18.688;2023-04-06T01:29:27;100881.31;;;1.08;55.41
75298;BME280;63896;45.990;18.688;2023-04-06T01:32:31;100878.88;;;1.07;56.31
75298;BME280;63896;45.990;18.688;2023-04-06T01:35:34;100878.16;;;1.14;55.76
75298;BME280;63896;45.990;18.688;2023-04-06T01:38:47;100877.47;;;1.12;55.97
75298;BME280;63896;45.990;18.688;2023-04-06T01:41:53;100876.91;;;1.09;56.17
75298;BME280;63896;45.990;18.688;2023-04-06T01:44:57;100870.50;;;1.03;56.83
75298;BME280;63896;45.990;18.688;2023-04-06T01:48:00;100872.81;;;1.06;56.09
75298;BME280;63896;45.990;18.688;2023-04-06T01:51:04;100875.84;;;1.02;56.40
75298;BME280;63896;45.990;18.688;2023-04-06T01:54:11;100869.78;;;1.11;55.98
75298;BME280;63896;45.990;18.688;2023-04-06T01:57:34;100879.28;;;1.12;56.42
75298;BME280;63896;45.990;18.688;2023-04-06T02:00:48;100876.19;;;1.26;56.66
75298;BME280;63896;45.990;18.688;2023-04-06T02:03:52;100874.25;;;1.28;57.22
75298;BME280;63896;45.990;18.688;2023-04-06T02:06:56;100874.53;;;1.25;56.81
75298;BME280;63896;45.990;18.688;2023-04-06T02:10:02;100883.50;;;1.22;57.79
75298;BME280;63896;45.990;18.688;2023-04-06T02:13:12;100878.16;;;1.05;58.31
75298;BME280;63896;45.990;18.688;2023-04-06T02:16:20;100878.19;;;0.95;58.87
75298;BME280;63896;45.990;18.688;2023-04-06T02:19:23;100875.34;;;0.88;59.58
75298;BME280;63896;45.990;18.688;2023-04-06T02:22:26;100879.31;;;0.83;58.99
75298;BME280;63896;45.990;18.688;2023-04-06T02:25:28;100873.69;;;0.78;58.82
75298;BME280;63896;45.990;18.688;2023-04-06T02:28:31;100876.16;;;0.79;59.21
75298;BME280;63896;45.990;18.688;2023-04-06T02:31:36;100883.16;;;0.79;59.33
75298;BME280;63896;45.990;18.688;2023-04-06T02:34:40;100881.94;;;0.83;59.47
75298;BME280;63896;45.990;18.688;2023-04-06T02:37:43;100877.81;;;0.71;59.82
75298;BME280;63896;45.990;18.688;2023-04-06T02:40:47;100881.53;;;0.68;59.92
75298;BME280;63896;45.990;18.688;2023-04-06T02:43:55;100883.31;;;0.68;60.38
75298;BME280;63896;45.990;18.688;2023-04-06T02:47:09;100876.72;;;0.54;60.25
75298;BME280;63896;45.990;18.688;2023-04-06T02:50:14;100885.66;;;0.52;61.47
75298;BME280;63896;45.990;18.688;2023-04-06T02:53:26;100882.09;;;0.53;60.92
75298;BME280;63896;45.990;18.688;2023-04-06T02:56:30;100874.09;;;0.44;60.85
75298;BME280;63896;45.990;18.688;2023-04-06T02:59:33;100880.84;;;0.47;60.63
75298;BME280;63896;45.990;18.688;2023-04-06T03:02:48;100881.53;;;0.49;60.68
75298;BME280;63896;45.990;18.688;2023-04-06T03:05:52;100882.38;;;0.50;60.96
75298;BME280;63896;45.990;18.688;2023-04-06T03:09:02;100888.00;;;0.45;60.45
75298;BME280;63896;45.990;18.688;2023-04-06T03:12:07;100889.34;;;0.39;61.20
75298;BME280;63896;45.990;18.688;2023-04-06T03:15:31;100894.00;;;0.36;61.47
75298;BME280;63896;45.990;18.688;2023-04-06T03:18:46;100893.06;;;0.37;61.46
75298;BME280;63896;45.990;18.688;2023-04-06T03:21:49;100891.97;;;0.30;61.29
75298;BME280;63896;45.990;18.688;2023-04-06T03:24:54;100888.09;;;0.24;61.49
75298;BME280;63896;45.990;18.688;2023-04-06T03:27:57;100885.50;;;0.15;62.37
75298;BME280;63896;45.990;18.688;2023-04-06T03:31:01;100893.28;;;0.05;62.34
75298;BME280;63896;45.990;18.688;2023-04-06T03:34:23;100898.78;;;0.02;62.57
75298;BME280;63896;45.990;18.688;2023-04-06T03:37:26;100896.16;;;0.12;62.36
75298;BME280;63896;45.990;18.688;2023-04-06T03:40:34;100898.91;;;0.00;62.80
75298;BME280;63896;45.990;18.688;2023-04-06T03:43:37;100898.34;;;-0.03;62.89
75298;BME280;63896;45.990;18.688;2023-04-06T03:46:40;100905.31;;;-0.13;63.50
75298;BME280;63896;45.990;18.688;2023-04-06T03:49:45;100909.03;;;-0.16;63.89
75298;BME280;63896;45.990;18.688;2023-04-06T03:52:50;100905.00;;;-0.29;64.49
75298;BME280;63896;45.990;18.688;2023-04-06T03:55:53;100911.69;;;-0.36;65.23
75298;BME280;63896;45.990;18.688;2023-04-06T03:58:56;100917.25;;;-0.20;64.45
75298;BME280;63896;45.990;18.688;2023-04-06T04:01:59;100912.63;;;-0.37;64.67
75298;BME280;63896;45.990;18.688;2023-04-06T04:05:03;100916.84;;;-0.46;65.61
75298;BME280;63896;45.990;18.688;2023-04-06T04:08:06;100926.53;;;-0.58;65.32
75298;BME280;63896;45.990;18.688;2023-04-06T04:11:09;100924.81;;;-0.68;64.99
75298;BME280;63896;45.990;18.688;2023-04-06T04:14:12;100916.41;;;-0.81;65.66
75298;BME280;63896;45.990;18.688;2023-04-06T04:17:15;100930.00;;;-0.78;65.72
75298;BME280;63896;45.990;18.688;2023-04-06T04:20:18;100920.97;;;-0.94;66.08
75298;BME280;63896;45.990;18.688;2023-04-06T04:23:21;100921.53;;;-0.91;66.06
75298;BME280;63896;45.990;18.688;2023-04-06T04:26:24;100925.16;;;-1.03;66.41
75298;BME280;63896;45.990;18.688;2023-04-06T04:29:27;100926.09;;;-1.04;66.26
75298;BME280;63896;45.990;18.688;2023-04-06T04:32:34;100923.38;;;-1.03;66.31
75298;BME280;63896;45.990;18.688;2023-04-06T04:35:40;100931.50;;;-1.17;66.47
75298;BME280;63896;45.990;18.688;2023-04-06T04:38:45;100930.69;;;-1.17;67.34
75298;BME280;63896;45.990;18.688;2023-04-06T04:41:48;100923.81;;;-1.18;67.26
75298;BME280;63896;45.990;18.688;2023-04-06T04:44:51;100925.94;;;-1.12;66.71
75298;BME280;63896;45.990;18.688;2023-04-06T04:48:06;100926.56;;;-0.99;66.59
75298;BME280;63896;45.990;18.688;2023-04-06T04:51:23;100935.47;;;-1.02;66.57
75298;BME280;63896;45.990;18.688;2023-04-06T04:54:50;100939.03;;;-0.82;66.65
75298;BME280;63896;45.990;18.688;2023-04-06T04:57:59;100941.66;;;-0.72;67.01
75298;BME280;63896;45.990;18.688;2023-04-06T05:01:20;100940.19;;;-0.65;67.10
75298;BME280;63896;45.990;18.688;2023-04-06T05:04:23;100939.69;;;-0.59;66.84
75298;BME280;63896;45.990;18.688;2023-04-06T05:07:29;100943.31;;;-0.51;67.43
75298;BME280;63896;45.990;18.688;2023-04-06T05:10:35;100932.16;;;-0.32;66.86
75298;BME280;63896;45.990;18.688;2023-04-06T05:13:39;100944.38;;;-0.23;66.53
75298;BME280;63896;45.990;18.688;2023-04-06T05:16:53;100940.72;;;-0.20;66.56
75298;BME280;63896;45.990;18.688;2023-04-06T05:19:59;100939.38;;;-0.05;65.70
75298;BME280;63896;45.990;18.688;2023-04-06T05:23:06;100930.06;;;0.02;65.20
75298;BME280;63896;45.990;18.688;2023-04-06T05:26:09;100937.34;;;0.08;65.07
75298;BME280;63896;45.990;18.688;2023-04-06T05:29:12;100930.13;;;0.21;64.65
75298;BME280;63896;45.990;18.688;2023-04-06T05:32:16;100943.75;;;0.34;64.18
75298;BME280;63896;45.990;18.688;2023-04-06T05:35:20;100935.50;;;0.39;64.26
75298;BME280;63896;45.990;18.688;2023-04-06T05:38:26;100935.66;;;0.57;64.41
75298;BME280;63896;45.990;18.688;2023-04-06T05:41:32;100927.69;;;0.77;63.92
75298;BME280;63896;45.990;18.688;2023-04-06T05:44:37;100930.72;;;0.82;62.97
75298;BME280;63896;45.990;18.688;2023-04-06T05:47:47;100926.03;;;1.05;62.61
75298;BME280;63896;45.990;18.688;2023-04-06T05:50:58;100935.25;;;1.56;60.53
75298;BME280;63896;45.990;18.688;2023-04-06T05:54:12;100924.84;;;1.83;60.16
75298;BME280;63896;45.990;18.688;2023-04-06T05:57:16;100931.56;;;2.13;59.79
75298;BME280;63896;45.990;18.688;2023-04-06T06:00:20;100925.63;;;2.38;58.07
75298;BME280;63896;45.990;18.688;2023-04-06T06:03:34;100923.91;;;2.29;58.55
75298;BME280;63896;45.990;18.688;2023-04-06T06:06:37;100923.75;;;2.30;57.86
75298;BME280;63896;45.990;18.688;2023-04-06T06:10:03;100923.31;;;2.35;58.42
75298;BME280;63896;45.990;18.688;2023-04-06T06:13:11;100923.09;;;2.46;57.49
75298;BME280;63896;45.990;18.688;2023-04-06T06:16:14;100927.34;;;2.82;56.81
75298;BME280;63896;45.990;18.688;2023-04-06T06:19:21;100926.94;;;3.64;54.11
75298;BME280;63896;45.990;18.688;2023-04-06T06:22:26;100912.97;;;4.64;51.48
75298;BME280;63896;45.990;18.688;2023-04-06T06:25:30;100923.06;;;5.72;48.40
75298;BME280;63896;45.990;18.688;2023-04-06T06:28:33;100914.22;;;6.43;46.23
75298;BME280;63896;45.990;18.688;2023-04-06T06:31:37;100915.50;;;7.30;44.39
75298;BME280;63896;45.990;18.688;2023-04-06T06:34:40;100908.97;;;7.40;43.38
75298;BME280;63896;45.990;18.688;2023-04-06T06:37:44;100912.50;;;8.06;42.28
75298;BME280;63896;45.990;18.688;2023-04-06T06:40:52;100903.19;;;9.37;40.13
75298;BME280;63896;45.990;18.688;2023-04-06T06:43:56;100899.13;;;9.07;39.66
75298;BME280;63896;45.990;18.688;2023-04-06T06:46:59;100896.63;;;10.02;37.34
75298;BME280;63896;45.990;18.688;2023-04-06T06:50:02;100903.19;;;10.73;35.72
75298;BME280;63896;45.990;18.688;2023-04-06T06:53:05;100904.19;;;10.79;35.27
75298;BME280;63896;45.990;18.688;2023-04-06T06:56:09;100898.50;;;10.88;34.42
75298;BME280;63896;45.990;18.688;2023-04-06T06:59:12;100900.38;;;12.05;31.12
75298;BME280;63896;45.990;18.688;2023-04-06T07:02:15;100902.03;;;12.37;32.62
75298;BME280;63896;45.990;18.688;2023-04-06T07:05:18;100892.84;;;13.63;29.66
75298;BME280;63896;45.990;18.688;2023-04-06T07:08:32;100891.94;;;13.88;27.62
75298;BME280;63896;45.990;18.688;2023-04-06T07:11:35;100902.34;;;11.38;29.56
75298;BME280;63896;45.990;18.688;2023-04-06T07:14:38;100895.03;;;13.48;27.08
75298;BME280;63896;45.990;18.688;2023-04-06T07:17:41;100886.69;;;14.47;26.22
75298;BME280;63896;45.990;18.688;2023-04-06T07:20:44;100888.94;;;14.14;26.06
75298;BME280;63896;45.990;18.688;2023-04-06T07:23:48;100884.53;;;14.08;26.93
75298;BME280;63896;45.990;18.688;2023-04-06T07:26:51;100879.63;;;14.53;26.44
75298;BME280;63896;45.990;18.688;2023-04-06T07:29:54;100891.66;;;14.85;25.72
75298;BME280;63896;45.990;18.688;2023-04-06T07:32:58;100883.44;;;15.21;24.39
75298;BME280;63896;45.990;18.688;2023-04-06T07:36:04;100875.34;;;15.51;24.55
75298;BME280;63896;45.990;18.688;2023-04-06T07:39:08;100877.28;;;15.44;25.33
75298;BME280;63896;45.990;18.688;2023-04-06T07:42:11;100874.25;;;16.15;24.18
75298;BME280;63896;45.990;18.688;2023-04-06T07:45:14;100877.41;;;15.49;25.38
75298;BME280;63896;45.990;18.688;2023-04-06T07:48:18;100876.72;;;16.05;23.48
75298;BME280;63896;45.990;18.688;2023-04-06T07:51:21;100865.22;;;16.78;23.02
75298;BME280;63896;45.990;18.688;2023-04-06T07:54:24;100870.09;;;16.98;22.06
75298;BME280;63896;45.990;18.688;2023-04-06T07:57:27;100864.16;;;16.96;21.95
75298;BME280;63896;45.990;18.688;2023-04-06T08:00:31;100856.88;;;16.91;22.46
75298;BME280;63896;45.990;18.688;2023-04-06T08:03:35;100864.28;;;17.39;21.30
75298;BME280;63896;45.990;18.688;2023-04-06T08:06:38;100854.91;;;18.29;20.79
75298;BME280;63896;45.990;18.688;2023-04-06T08:09:43;100856.50;;;18.25;20.49
75298;BME280;63896;45.990;18.688;2023-04-06T08:12:46;100851.03;;;19.47;19.15
75298;BME280;63896;45.990;18.688;2023-04-06T08:15:49;100850.06;;;19.63;18.85
75298;BME280;63896;45.990;18.688;2023-04-06T08:18:52;100843.38;;;19.29;19.57
75298;BME280;63896;45.990;18.688;2023-04-06T08:21:55;100837.41;;;19.64;18.44
75298;BME280;63896;45.990;18.688;2023-04-06T08:24:58;100834.38;;;19.08;19.02
75298;BME280;63896;45.990;18.688;2023-04-06T08:28:02;100840.91;;;19.64;18.95
75298;BME280;63896;45.990;18.688;2023-04-06T08:31:05;100840.53;;;20.08;17.73
75298;BME280;63896;45.990;18.688;2023-04-06T08:34:08;100825.88;;;19.26;19.71
75298;BME280;63896;45.990;18.688;2023-04-06T08:37:15;100828.97;;;19.45;19.70
75298;BME280;63896;45.990;18.688;2023-04-06T08:40:19;100829.53;;;19.52;19.41
75298;BME280;63896;45.990;18.688;2023-04-06T08:43:23;100829.75;;;18.67;20.09
75298;BME280;63896;45.990;18.688;2023-04-06T08:46:26;100824.91;;;19.42;20.32
75298;BME280;63896;45.990;18.688;2023-04-06T08:49:34;100827.66;;;20.40;18.62
75298;BME280;63896;45.990;18.688;2023-04-06T08:52:40;100822.53;;;20.74;18.36
75298;BME280;63896;45.990;18.688;2023-04-06T08:55:44;100814.25;;;19.68;18.37
75298;BME280;63896;45.990;18.688;2023-04-06T08:58:49;100815.94;;;19.89;18.18
75298;BME280;63896;45.990;18.688;2023-04-06T09:01:55;100815.47;;;20.07;18.19
75298;BME280;63896;45.990;18.688;2023-04-06T09:05:00;100810.59;;;18.53;19.87
75298;BME280;63896;45.990;18.688;2023-04-06T09:08:04;100803.88;;;19.39;18.16
75298;BME280;63896;45.990;18.688;2023-04-06T09:11:08;100810.31;;;16.19;20.63
75298;BME280;63896;45.990;18.688;2023-04-06T09:14:11;100807.13;;;15.77;21.13
75298;BME280;63896;45.990;18.688;2023-04-06T09:17:40;100810.84;;;17.38;19.64
75298;BME280;63896;45.990;18.688;2023-04-06T09:20:57;100809.00;;;17.38;20.37
75298;BME280;63896;45.990;18.688;2023-04-06T09:24:00;100809.66;;;18.16;19.83
75298;BME280;63896;45.990;18.688;2023-04-06T09:27:04;100802.09;;;18.39;18.53
75298;BME280;63896;45.990;18.688;2023-04-06T09:30:11;100802.53;;;18.31;18.42
75298;BME280;63896;45.990;18.688;2023-04-06T09:33:22;100809.28;;;17.58;19.09
75298;BME280;63896;45.990;18.688;2023-04-06T09:36:33;100808.06;;;17.93;18.95
75298;BME280;63896;45.990;18.688;2023-04-06T09:39:36;100805.72;;;17.53;19.35
75298;BME280;63896;45.990;18.688;2023-04-06T09:42:45;100803.09;;;18.92;18.61
75298;BME280;63896;45.990;18.688;2023-04-06T09:45:48;100800.56;;;19.69;17.76
75298;BME280;63896;45.990;18.688;2023-04-06T09:48:52;100793.56;;;19.21;18.21
75298;BME280;63896;45.990;18.688;2023-04-06T09:51:58;100791.78;;;18.58;18.69
75298;BME280;63896;45.990;18.688;2023-04-06T09:55:04;100794.75;;;17.76;19.53
75298;BME280;63896;45.990;18.688;2023-04-06T09:58:13;100793.47;;;16.35;21.48
75298;BME280;63896;45.990;18.688;2023-04-06T10:01:21;100789.97;;;18.64;19.79
75298;BME280;63896;45.990;18.688;2023-04-06T10:07:33;100778.75;;;17.21;20.38
75298;BME280;63896;45.990;18.688;2023-04-06T10:10:51;100780.38;;;17.22;20.92
75298;BME280;63896;45.990;18.688;2023-04-06T10:13:55;100765.72;;;17.73;19.54
75298;BME280;63896;45.990;18.688;2023-04-06T10:16:58;100775.00;;;17.66;20.02
75298;BME280;63896;45.990;18.688;2023-04-06T10:23:35;100779.06;;;17.25;19.54
75298;BME280;63896;45.990;18.688;2023-04-06T10:26:39;100758.16;;;18.24;19.67
75298;BME280;63896;45.990;18.688;2023-04-06T10:29:46;100764.03;;;17.45;20.08
75298;BME280;63896;45.990;18.688;2023-04-06T10:32:51;100766.38;;;17.42;20.05
75298;BME280;63896;45.990;18.688;2023-04-06T10:35:54;100750.66;;;18.26;19.45
75298;BME280;63896;45.990;18.688;2023-04-06T10:39:03;100759.34;;;18.70;18.67
75298;BME280;63896;45.990;18.688;2023-04-06T10:42:07;100756.34;;;16.10;21.44
75298;BME280;63896;45.990;18.688;2023-04-06T10:45:22;100752.56;;;16.90;21.18
75298;BME280;63896;45.990;18.688;2023-04-06T10:48:43;100736.41;;;18.52;19.26
75298;BME280;63896;45.990;18.688;2023-04-06T10:51:51;100737.59;;;20.06;17.60
75298;BME280;63896;45.990;18.688;2023-04-06T10:54:56;100724.09;;;19.90;17.92
75298;BME280;63896;45.990;18.688;2023-04-06T10:57:59;100722.16;;;19.56;18.03
75298;BME280;63896;45.990;18.688;2023-04-06T11:01:02;100714.09;;;19.61;17.43
75298;BME280;63896;45.990;18.688;2023-04-06T11:04:06;100712.16;;;18.84;18.46
75298;BME280;63896;45.990;18.688;2023-04-06T11:07:11;100710.63;;;18.56;19.26
75298;BME280;63896;45.990;18.688;2023-04-06T11:10:21;100705.00;;;19.10;18.59
75298;BME280;63896;45.990;18.688;2023-04-06T11:13:25;100698.81;;;17.93;20.09
75298;BME280;63896;45.990;18.688;2023-04-06T11:16:32;100699.44;;;17.52;20.07
75298;BME280;63896;45.990;18.688;2023-04-06T11:19:35;100692.91;;;17.65;19.16
75298;BME280;63896;45.990;18.688;2023-04-06T11:22:51;100692.16;;;18.65;19.45
75298;BME280;63896;45.990;18.688;2023-04-06T11:25:54;100671.53;;;19.47;18.12
75298;BME280;63896;45.990;18.688;2023-04-06T11:28:57;100671.31;;;20.20;18.32
75298;BME280;63896;45.990;18.688;2023-04-06T11:32:03;100679.75;;;18.27;19.17
75298;BME280;63896;45.990;18.688;2023-04-06T11:35:06;100668.66;;;20.35;17.45
75298;BME280;63896;45.990;18.688;2023-04-06T11:38:09;100674.25;;;19.68;17.73
75298;BME280;63896;45.990;18.688;2023-04-06T11:41:12;100661.63;;;20.39;16.57
75298;BME280;63896;45.990;18.688;2023-04-06T11:44:15;100663.56;;;21.18;16.04
75298;BME280;63896;45.990;18.688;2023-04-06T11:47:19;100653.28;;;20.05;16.58
75298;BME280;63896;45.990;18.688;2023-04-06T11:50:22;100652.91;;;21.42;15.97
75298;BME280;63896;45.990;18.688;2023-04-06T11:53:26;100656.78;;;19.80;17.67
75298;BME280;63896;45.990;18.688;2023-04-06T11:56:30;100655.13;;;20.65;16.71
75298;BME280;63896;45.990;18.688;2023-04-06T11:59:33;100649.75;;;20.50;16.86
75298;BME280;63896;45.990;18.688;2023-04-06T12:02:37;100644.09;;;20.36;16.56
75298;BME280;63896;45.990;18.688;2023-04-06T12:05:40;100637.41;;;20.04;17.92
75298;BME280;63896;45.990;18.688;2023-04-06T12:08:43;100631.66;;;21.69;15.88
75298;BME280;63896;45.990;18.688;2023-04-06T12:11:47;100630.91;;;21.09;16.84
75298;BME280;63896;45.990;18.688;2023-04-06T12:14:50;100632.50;;;20.41;17.35
75298;BME280;63896;45.990;18.688;2023-04-06T12:17:53;100631.97;;;20.44;17.65
75298;BME280;63896;45.990;18.688;2023-04-06T12:20:56;100634.88;;;20.63;16.83
75298;BME280;63896;45.990;18.688;2023-04-06T12:23:59;100621.50;;;21.02;16.32
75298;BME280;63896;45.990;18.688;2023-04-06T12:27:03;100623.88;;;20.39;17.02
75298;BME280;63896;45.990;18.688;2023-04-06T12:30:12;100616.13;;;19.77;17.65
75298;BME280;63896;45.990;18.688;2023-04-06T12:33:15;100633.06;;;20.13;16.81
75298;BME280;63896;45.990;18.688;2023-04-06T12:36:20;100627.28;;;19.13;17.52
75298;BME280;63896;45.990;18.688;2023-04-06T12:39:23;100606.06;;;17.76;18.86
75298;BME280;63896;45.990;18.688;2023-04-06T12:42:26;100616.59;;;18.66;18.57
75298;BME280;63896;45.990;18.688;2023-04-06T12:45:31;100613.41;;;19.52;18.02
75298;BME280;63896;45.990;18.688;2023-04-06T12:48:34;100611.22;;;18.66;18.16
75298;BME280;63896;45.990;18.688;2023-04-06T12:51:38;100610.91;;;18.16;19.23
75298;BME280;63896;45.990;18.688;2023-04-06T12:54:41;100610.03;;;16.54;19.88
75298;BME280;63896;45.990;18.688;2023-04-06T12:57:45;100607.31;;;16.33;20.76
75298;BME280;63896;45.990;18.688;2023-04-06T13:00:49;100606.13;;;16.45;21.05
75298;BME280;63896;45.990;18.688;2023-04-06T13:03:53;100606.63;;;16.59;20.97
75298;BME280;63896;45.990;18.688;2023-04-06T13:06:56;100597.72;;;16.97;21.41
75298;BME280;63896;45.990;18.688;2023-04-06T13:09:59;100593.63;;;17.16;20.31
75298;BME280;63896;45.990;18.688;2023-04-06T13:13:02;100597.84;;;17.34;20.39
75298;BME280;63896;45.990;18.688;2023-04-06T13:16:07;100604.31;;;17.11;20.53
75298;BME280;63896;45.990;18.688;2023-04-06T13:19:11;100594.66;;;17.37;20.54
75298;BME280;63896;45.990;18.688;2023-04-06T13:22:14;100593.63;;;17.70;20.35
75298;BME280;63896;45.990;18.688;2023-04-06T13:25:18;100585.59;;;16.51;21.37
75298;BME280;63896;45.990;18.688;2023-04-06T13:28:21;100597.78;;;15.70;21.87
75298;BME280;63896;45.990;18.688;2023-04-06T13:31:24;100594.59;;;16.06;21.91
75298;BME280;63896;45.990;18.688;2023-04-06T13:34:28;100585.09;;;16.32;21.64
75298;BME280;63896;45.990;18.688;2023-04-06T13:37:32;100596.47;;;15.72;21.71
75298;BME280;63896;45.990;18.688;2023-04-06T13:40:38;100581.94;;;16.18;21.61
75298;BME280;63896;45.990;18.688;2023-04-06T13:43:42;100587.78;;;14.92;23.46
75298;BME280;63896;45.990;18.688;2023-04-06T13:46:45;100581.06;;;16.51;20.96
75298;BME280;63896;45.990;18.688;2023-04-06T13:49:50;100578.41;;;17.80;20.01
75298;BME280;63896;45.990;18.688;2023-04-06T13:52:54;100577.75;;;17.36;20.33
75298;BME280;63896;45.990;18.688;2023-04-06T13:55:57;100571.22;;;17.27;20.38
75298;BME280;63896;45.990;18.688;2023-04-06T13:59:00;100574.88;;;16.51;21.34
75298;BME280;63896;45.990;18.688;2023-04-06T14:02:03;100583.47;;;16.70;20.26
75298;BME280;63896;45.990;18.688;2023-04-06T14:05:08;100580.81;;;15.48;20.94
75298;BME280;63896;45.990;18.688;2023-04-06T14:08:11;100586.19;;;15.81;20.79
75298;BME280;63896;45.990;18.688;2023-04-06T14:11:14;100575.88;;;15.56;21.76
75298;BME280;63896;45.990;18.688;2023-04-06T14:14:18;100579.56;;;15.67;20.85
75298;BME280;63896;45.990;18.688;2023-04-06T14:17:21;100578.19;;;15.08;21.82
75298;BME280;63896;45.990;18.688;2023-04-06T14:20:23;100575.00;;;14.54;22.04
75298;BME280;63896;45.990;18.688;2023-04-06T14:23:29;100569.91;;;14.18;22.22
75298;BME280;63896;45.990;18.688;2023-04-06T14:26:32;100575.34;;;14.46;22.52
75298;BME280;63896;45.990;18.688;2023-04-06T14:29:35;100587.41;;;14.49;22.50
75298;BME280;63896;45.990;18.688;2023-04-06T14:32:40;100575.00;;;14.08;23.44
75298;BME280;63896;45.990;18.688;2023-04-06T14:35:43;100569.41;;;13.51;23.80
75298;BME280;63896;45.990;18.688;2023-04-06T14:38:46;100573.56;;;13.17;24.60
75298;BME280;63896;45.990;18.688;2023-04-06T14:41:50;100576.59;;;13.21;24.10
75298;BME280;63896;45.990;18.688;2023-04-06T14:44:53;100567.81;;;13.02;24.46
75298;BME280;63896;45.990;18.688;2023-04-06T14:47:56;100564.91;;;12.74;24.88
75298;BME280;63896;45.990;18.688;2023-04-06T14:51:01;100565.88;;;12.61;25.19
75298;BME280;63896;45.990;18.688;2023-04-06T14:54:04;100563.66;;;12.40;25.49
75298;BME280;63896;45.990;18.688;2023-04-06T14:57:08;100571.25;;;12.18;25.76
75298;BME280;63896;45.990;18.688;2023-04-06T15:00:12;100573.34;;;11.91;26.02
75298;BME280;63896;45.990;18.688;2023-04-06T15:03:16;100579.88;;;11.64;26.48
75298;BME280;63896;45.990;18.688;2023-04-06T15:06:20;100583.88;;;11.17;27.00
75298;BME280;63896;45.990;18.688;2023-04-06T15:09:23;100573.94;;;11.37;27.45
75298;BME280;63896;45.990;18.688;2023-04-06T15:12:26;100572.53;;;10.97;27.70
75298;BME280;63896;45.990;18.688;2023-04-06T15:15:29;100575.81;;;10.99;27.51
75298;BME280;63896;45.990;18.688;2023-04-06T15:18:33;100580.41;;;11.17;28.44
75298;BME280;63896;45.990;18.688;2023-04-06T15:21:37;100579.72;;;11.28;28.36
75298;BME280;63896;45.990;18.688;2023-04-06T15:24:40;100580.50;;;11.04;29.54
75298;BME280;63896;45.990;18.688;2023-04-06T15:27:43;100579.03;;;11.08;29.49
75298;BME280;63896;45.990;18.688;2023-04-06T15:30:46;100584.75;;;11.05;28.82
75298;BME280;63896;45.990;18.688;2023-04-06T15:33:49;100588.97;;;10.74;29.73
75298;BME280;63896;45.990;18.688;2023-04-06T15:36:52;100588.97;;;10.74;29.68
75298;BME280;63896;45.990;18.688;2023-04-06T15:39:55;100598.06;;;10.40;30.32
75298;BME280;63896;45.990;18.688;2023-04-06T15:43:00;100589.25;;;10.53;30.61
75298;BME280;63896;45.990;18.688;2023-04-06T15:46:03;100588.31;;;10.01;30.51
75298;BME280;63896;45.990;18.688;2023-04-06T15:49:06;100605.22;;;10.14;30.52
75298;BME280;63896;45.990;18.688;2023-04-06T15:52:09;100607.50;;;9.84;30.59
75298;BME280;63896;45.990;18.688;2023-04-06T15:55:12;100609.13;;;9.65;31.76
75298;BME280;63896;45.990;18.688;2023-04-06T15:58:15;100614.19;;;9.86;31.78
75298;BME280;63896;45.990;18.688;2023-04-06T16:01:18;100606.88;;;9.69;31.62
75298;BME280;63896;45.990;18.688;2023-04-06T16:04:21;100612.56;;;9.85;31.31
75298;BME280;63896;45.990;18.688;2023-04-06T16:07:25;100613.19;;;9.68;31.35